createdAt,value
2018-07-26T00:00:14.655Z,22.54
2018-07-26T00:00:45.871Z,22.55
2018-07-26T00:01:17.036Z,22.57
2018-07-26T00:01:48.174Z,22.58
2018-07-26T00:02:20.327Z,22.60
2018-07-26T00:02:51.599Z,22.63
2018-07-26T00:03:22.822Z,22.63
2018-07-26T00:03:54.073Z,22.65
2018-07-26T00:04:25.275Z,22.63
2018-07-26T00:04:56.375Z,22.64
2018-07-26T00:05:27.483Z,22.63
2018-07-26T00:05:58.600Z,22.63
2018-07-26T00:06:29.711Z,22.66
2018-07-26T00:07:00.815Z,22.67
2018-07-26T00:07:32.051Z,22.69
2018-07-26T00:08:03.204Z,22.67
2018-07-26T00:08:34.398Z,22.67
2018-07-26T00:09:05.533Z,22.65
2018-07-26T00:09:36.685Z,22.65
2018-07-26T00:10:07.825Z,22.63
2018-07-26T00:10:38.941Z,22.65
2018-07-26T00:11:10.057Z,22.66
2018-07-26T00:11:41.251Z,22.67
2018-07-26T00:12:12.427Z,22.65
2018-07-26T00:12:43.540Z,22.63
2018-07-26T00:13:14.666Z,22.60
2018-07-26T00:13:45.828Z,22.60
2018-07-26T00:14:16.948Z,22.56
2018-07-26T00:14:48.101Z,22.56
2018-07-26T00:15:19.224Z,22.53
2018-07-26T00:15:50.339Z,22.54
2018-07-26T00:16:21.453Z,22.56
2018-07-26T00:16:52.566Z,22.54
2018-07-26T00:17:24.914Z,22.51
2018-07-26T00:17:56.024Z,22.52
2018-07-26T00:18:27.231Z,22.50
2018-07-26T00:18:58.388Z,22.50
2018-07-26T00:19:29.495Z,22.49
2018-07-26T00:20:00.603Z,22.47
2018-07-26T00:20:31.721Z,22.47
2018-07-26T00:21:02.869Z,22.44
2018-07-26T00:21:34.077Z,22.43
2018-07-26T00:22:05.218Z,22.41
2018-07-26T00:22:36.327Z,22.39
2018-07-26T00:23:07.497Z,22.37
2018-07-26T00:23:38.624Z,22.36
2018-07-26T00:24:09.749Z,22.33
2018-07-26T00:24:40.855Z,22.28
2018-07-26T00:25:11.994Z,22.28
2018-07-26T00:25:43.099Z,22.25
2018-07-26T00:26:14.228Z,22.26
2018-07-26T00:26:45.345Z,22.26
2018-07-26T00:27:16.455Z,22.25
2018-07-26T00:27:47.572Z,22.24
2018-07-26T00:28:18.734Z,22.21
2018-07-26T00:28:49.840Z,22.23
2018-07-26T00:29:20.967Z,22.22
2018-07-26T00:29:52.121Z,22.22
2018-07-26T00:30:23.265Z,22.19
2018-07-26T00:30:54.427Z,22.15
2018-07-26T00:31:25.544Z,22.09
2018-07-26T00:31:56.672Z,22.07
2018-07-26T00:32:27.888Z,22.09
2018-07-26T00:32:58.997Z,21.78
2018-07-26T00:33:30.111Z,22.04
2018-07-26T00:34:01.226Z,22.00
2018-07-26T00:34:32.343Z,21.99
2018-07-26T00:35:03.461Z,21.96
2018-07-26T00:35:34.623Z,21.94
2018-07-26T00:36:05.747Z,21.96
2018-07-26T00:36:36.903Z,21.99
2018-07-26T00:37:08.015Z,22.00
2018-07-26T00:37:39.131Z,22.00
2018-07-26T00:38:10.242Z,21.99
2018-07-26T00:38:41.372Z,21.99
2018-07-26T00:39:12.486Z,21.96
2018-07-26T00:39:43.614Z,21.93
2018-07-26T00:40:14.731Z,21.88
2018-07-26T00:40:45.845Z,21.89
2018-07-26T00:41:16.970Z,21.90
2018-07-26T00:41:48.136Z,21.92
2018-07-26T00:42:19.251Z,21.94
2018-07-26T00:42:50.366Z,21.97
2018-07-26T00:43:21.488Z,21.98
2018-07-26T00:43:52.699Z,22.00
2018-07-26T00:44:23.812Z,22.02
2018-07-26T00:44:54.923Z,22.02
2018-07-26T00:45:26.069Z,22.02
2018-07-26T00:45:58.261Z,21.99
2018-07-26T00:46:29.363Z,21.95
2018-07-26T00:47:00.533Z,21.91
2018-07-26T00:47:31.667Z,21.94
2018-07-26T00:48:02.779Z,21.94
2018-07-26T00:48:33.985Z,21.95
2018-07-26T00:49:05.096Z,21.92
2018-07-26T00:49:36.400Z,21.88
2018-07-26T00:50:07.521Z,21.86
2018-07-26T00:50:38.636Z,21.83
2018-07-26T00:51:09.762Z,21.81
2018-07-26T00:51:40.929Z,21.78
2018-07-26T00:52:12.085Z,21.79
2018-07-26T00:52:43.253Z,21.82
2018-07-26T00:53:14.399Z,21.82
2018-07-26T00:53:45.587Z,21.82
2018-07-26T00:54:16.696Z,21.81
2018-07-26T00:54:47.808Z,21.80
2018-07-26T00:55:19.075Z,21.81
2018-07-26T00:55:50.216Z,21.79
2018-07-26T00:56:21.360Z,21.78
2018-07-26T00:56:52.527Z,21.78
2018-07-26T00:57:23.769Z,21.77
2018-07-26T00:57:54.908Z,21.77
2018-07-26T00:58:26.037Z,21.78
2018-07-26T00:58:57.190Z,21.80
2018-07-26T00:59:28.307Z,21.83
2018-07-26T00:59:59.500Z,21.83
2018-07-26T01:00:30.728Z,21.85
2018-07-26T01:01:01.845Z,21.87
2018-07-26T01:01:33.044Z,21.84
2018-07-26T01:02:05.200Z,21.85
2018-07-26T01:02:36.349Z,21.83
2018-07-26T01:03:07.572Z,21.83
2018-07-26T01:03:38.695Z,21.85
2018-07-26T01:04:09.893Z,21.85
2018-07-26T01:04:41.140Z,21.84
2018-07-26T01:05:12.271Z,21.84
2018-07-26T01:05:43.407Z,21.82
2018-07-26T01:06:14.579Z,21.81
2018-07-26T01:06:45.683Z,21.80
2018-07-26T01:07:16.852Z,21.79
2018-07-26T01:07:48.035Z,21.80
2018-07-26T01:08:19.258Z,21.78
2018-07-26T01:08:50.397Z,21.75
2018-07-26T01:09:21.656Z,21.70
2018-07-26T01:09:52.821Z,21.67
2018-07-26T01:10:23.975Z,21.64
2018-07-26T01:10:55.212Z,21.60
2018-07-26T01:11:26.449Z,21.57
2018-07-26T01:11:57.560Z,21.54
2018-07-26T01:12:28.754Z,21.52
2018-07-26T01:12:59.977Z,21.50
2018-07-26T01:13:31.093Z,21.48
2018-07-26T01:14:02.199Z,21.51
2018-07-26T01:14:33.320Z,21.52
2018-07-26T01:15:04.506Z,21.52
2018-07-26T01:15:35.640Z,21.52
2018-07-26T01:16:06.756Z,21.54
2018-07-26T01:16:37.920Z,21.55
2018-07-26T01:17:09.050Z,21.57
2018-07-26T01:17:40.197Z,21.57
2018-07-26T01:18:11.318Z,21.59
2018-07-26T01:18:42.466Z,21.59
2018-07-26T01:19:13.704Z,21.60
2018-07-26T01:19:44.893Z,21.60
2018-07-26T01:20:16.065Z,21.57
2018-07-26T01:20:47.263Z,21.59
2018-07-26T01:21:18.385Z,21.58
2018-07-26T01:21:49.596Z,21.57
2018-07-26T01:22:20.731Z,21.60
2018-07-26T01:22:51.856Z,21.57
2018-07-26T01:23:23.027Z,21.54
2018-07-26T01:23:54.264Z,21.53
2018-07-26T01:24:25.404Z,21.53
2018-07-26T01:24:56.613Z,21.50
2018-07-26T01:25:27.719Z,21.48
2018-07-26T01:25:58.958Z,21.45
2018-07-26T01:26:30.072Z,21.42
2018-07-26T01:27:01.229Z,21.41
2018-07-26T01:27:32.425Z,21.40
2018-07-26T01:28:03.605Z,21.40
2018-07-26T01:28:35.860Z,21.39
2018-07-26T01:29:07.080Z,21.37
2018-07-26T01:29:38.249Z,21.37
2018-07-26T01:30:09.439Z,21.36
2018-07-26T01:30:40.542Z,21.39
2018-07-26T01:31:11.695Z,21.39
2018-07-26T01:31:42.832Z,21.37
2018-07-26T01:32:13.984Z,21.36
2018-07-26T01:32:45.201Z,21.39
2018-07-26T01:33:16.453Z,21.41
2018-07-26T01:33:47.676Z,21.42
2018-07-26T01:34:19.766Z,21.45
2018-07-26T01:34:50.941Z,21.48
2018-07-26T01:35:22.157Z,21.49
2018-07-26T01:35:53.332Z,21.51
2018-07-26T01:36:24.472Z,21.52
2018-07-26T01:36:55.814Z,21.56
2018-07-26T01:37:26.926Z,21.60
2018-07-26T01:37:58.141Z,21.62
2018-07-26T01:38:29.268Z,21.65
2018-07-26T01:39:00.436Z,21.67
2018-07-26T01:39:31.674Z,21.71
2018-07-26T01:40:02.816Z,21.72
2018-07-26T01:40:33.937Z,21.71
2018-07-26T01:41:05.051Z,21.70
2018-07-26T01:41:36.229Z,21.65
2018-07-26T01:42:07.409Z,21.62
2018-07-26T01:42:38.523Z,21.59
2018-07-26T01:43:09.736Z,21.58
2018-07-26T01:43:41.079Z,21.55
2018-07-26T01:44:12.200Z,21.48
2018-07-26T01:44:43.311Z,21.45
2018-07-26T01:45:14.419Z,21.44
2018-07-26T01:45:45.533Z,21.41
2018-07-26T01:46:16.764Z,21.40
2018-07-26T01:46:47.893Z,21.36
2018-07-26T01:47:19.158Z,21.38
2018-07-26T01:47:50.292Z,21.37
2018-07-26T01:48:21.448Z,21.36
2018-07-26T01:48:52.627Z,21.37
2018-07-26T01:49:23.970Z,21.39
2018-07-26T01:49:55.197Z,21.36
2018-07-26T01:50:26.383Z,21.35
2018-07-26T01:50:57.609Z,21.33
2018-07-26T01:51:28.828Z,21.32
2018-07-26T01:52:00.061Z,21.32
2018-07-26T01:52:31.313Z,21.33
2018-07-26T01:53:02.529Z,21.35
2018-07-26T01:53:33.763Z,21.37
2018-07-26T01:54:04.919Z,21.39
2018-07-26T01:54:36.083Z,21.39
2018-07-26T01:55:07.257Z,21.41
2018-07-26T01:55:38.408Z,21.43
2018-07-26T01:56:09.523Z,21.45
2018-07-26T01:56:40.697Z,21.45
2018-07-26T01:57:11.955Z,21.43
2018-07-26T01:57:43.140Z,21.42
2018-07-26T01:58:14.328Z,21.40
2018-07-26T01:58:45.592Z,21.39
2018-07-26T01:59:16.800Z,21.38
2018-07-26T01:59:48.052Z,21.37
2018-07-26T02:00:19.167Z,21.36
2018-07-26T02:00:50.329Z,21.32
2018-07-26T02:01:21.508Z,21.26
2018-07-26T02:01:52.628Z,21.24
2018-07-26T02:02:23.887Z,21.21
2018-07-26T02:02:55.043Z,21.21
2018-07-26T02:03:26.336Z,21.20
2018-07-26T02:03:57.456Z,21.20
2018-07-26T02:04:28.703Z,21.21
2018-07-26T02:05:00.010Z,21.18
2018-07-26T02:05:31.236Z,21.16
2018-07-26T02:06:02.394Z,21.16
2018-07-26T02:06:33.604Z,21.15
2018-07-26T02:07:04.741Z,21.15
2018-07-26T02:07:35.912Z,21.16
2018-07-26T02:08:07.021Z,21.19
2018-07-26T02:08:38.177Z,21.21
2018-07-26T02:09:09.323Z,21.26
2018-07-26T02:09:40.557Z,21.32
2018-07-26T02:10:11.787Z,21.35
2018-07-26T02:10:42.936Z,21.36
2018-07-26T02:11:14.140Z,21.36
2018-07-26T02:11:45.324Z,21.38
2018-07-26T02:12:16.428Z,21.41
2018-07-26T02:12:47.582Z,21.44
2018-07-26T02:13:18.784Z,21.46
2018-07-26T02:13:49.934Z,21.50
2018-07-26T02:14:21.116Z,21.53
2018-07-26T02:14:52.249Z,21.55
2018-07-26T02:15:23.414Z,21.57
2018-07-26T02:15:54.548Z,21.60
2018-07-26T02:16:25.712Z,21.61
2018-07-26T02:16:56.835Z,21.65
2018-07-26T02:17:27.990Z,21.65
2018-07-26T02:17:59.252Z,21.64
2018-07-26T02:18:30.486Z,21.65
2018-07-26T02:19:01.614Z,21.66
2018-07-26T02:19:32.794Z,21.67
2018-07-26T02:20:03.918Z,21.67
2018-07-26T02:20:35.077Z,21.64
2018-07-26T02:21:06.199Z,21.62
2018-07-26T02:21:37.469Z,21.60
2018-07-26T02:22:08.597Z,21.59
2018-07-26T02:22:39.869Z,21.58
2018-07-26T02:23:11.098Z,21.56
2018-07-26T02:23:42.299Z,21.56
2018-07-26T02:24:13.428Z,21.54
2018-07-26T02:24:44.591Z,21.54
2018-07-26T02:25:15.813Z,21.53
2018-07-26T02:25:46.933Z,21.53
2018-07-26T02:26:18.072Z,21.54
2018-07-26T02:26:49.175Z,21.52
2018-07-26T02:27:20.380Z,21.54
2018-07-26T02:27:51.495Z,21.56
2018-07-26T02:28:22.607Z,21.55
2018-07-26T02:28:53.722Z,21.55
2018-07-26T02:29:24.887Z,21.56
2018-07-26T02:29:56.012Z,21.54
2018-07-26T02:30:27.127Z,21.52
2018-07-26T02:30:58.260Z,21.49
2018-07-26T02:31:29.433Z,21.49
2018-07-26T02:32:00.613Z,21.50
2018-07-26T02:32:31.948Z,21.51
2018-07-26T02:33:03.127Z,21.50
2018-07-26T02:33:34.302Z,21.49
2018-07-26T02:34:05.481Z,21.50
2018-07-26T02:34:36.639Z,21.49
2018-07-26T02:35:07.748Z,21.47
2018-07-26T02:35:38.864Z,21.44
2018-07-26T02:36:10.072Z,21.44
2018-07-26T02:36:41.312Z,21.42
2018-07-26T02:37:12.472Z,21.25
2018-07-26T02:37:43.583Z,21.36
2018-07-26T02:38:14.749Z,21.34
2018-07-26T02:38:45.880Z,21.38
2018-07-26T02:39:17.457Z,21.38
2018-07-26T02:39:48.591Z,21.39
2018-07-26T02:40:19.719Z,21.38
2018-07-26T02:40:50.830Z,21.37
2018-07-26T02:41:22.008Z,21.37
2018-07-26T02:41:53.196Z,21.37
2018-07-26T02:42:24.496Z,21.37
2018-07-26T02:42:55.618Z,21.36
2018-07-26T02:43:26.735Z,21.37
2018-07-26T02:43:57.864Z,21.37
2018-07-26T02:44:29.115Z,21.37
2018-07-26T02:45:00.247Z,21.37
2018-07-26T02:45:31.394Z,21.37
2018-07-26T02:46:02.569Z,21.38
2018-07-26T02:46:33.752Z,21.38
2018-07-26T02:47:04.929Z,21.40
2018-07-26T02:47:36.547Z,21.42
2018-07-26T02:48:07.658Z,21.45
2018-07-26T02:48:38.774Z,21.43
2018-07-26T02:49:09.883Z,21.42
2018-07-26T02:49:41.200Z,21.42
2018-07-26T02:50:12.376Z,21.41
2018-07-26T02:50:43.657Z,21.42
2018-07-26T02:51:14.945Z,21.40
2018-07-26T02:51:46.067Z,21.40
2018-07-26T02:52:17.372Z,21.38
2018-07-26T02:52:48.497Z,21.37
2018-07-26T02:53:19.605Z,21.35
2018-07-26T02:53:50.752Z,21.34
2018-07-26T02:54:21.917Z,21.30
2018-07-26T02:54:53.128Z,21.24
2018-07-26T02:55:24.254Z,21.19
2018-07-26T02:55:55.436Z,21.18
2018-07-26T02:56:26.618Z,21.19
2018-07-26T02:56:57.825Z,21.20
2018-07-26T02:57:29.008Z,21.24
2018-07-26T02:58:00.140Z,21.25
2018-07-26T02:58:31.337Z,21.26
2018-07-26T02:59:02.513Z,21.27
2018-07-26T02:59:33.640Z,21.28
2018-07-26T03:00:04.950Z,21.30
2018-07-26T03:00:36.089Z,21.29
2018-07-26T03:01:07.200Z,21.34
2018-07-26T03:01:38.319Z,21.35
2018-07-26T03:02:09.426Z,21.35
2018-07-26T03:02:40.847Z,21.33
2018-07-26T03:03:12.015Z,21.33
2018-07-26T03:03:43.182Z,21.34
2018-07-26T03:04:15.084Z,21.32
2018-07-26T03:04:46.358Z,21.33
2018-07-26T03:05:17.552Z,21.35
2018-07-26T03:05:48.721Z,21.37
2018-07-26T03:06:19.845Z,21.38
2018-07-26T03:06:51.008Z,21.40
2018-07-26T03:07:22.184Z,21.42
2018-07-26T03:07:53.346Z,21.41
2018-07-26T03:08:24.610Z,21.39
2018-07-26T03:08:55.885Z,21.39
2018-07-26T03:09:27.090Z,21.38
2018-07-26T03:09:58.234Z,21.37
2018-07-26T03:10:29.368Z,21.37
2018-07-26T03:11:00.594Z,21.34
2018-07-26T03:11:31.720Z,21.34
2018-07-26T03:12:02.830Z,21.35
2018-07-26T03:12:34.068Z,21.33
2018-07-26T03:13:05.239Z,21.29
2018-07-26T03:13:36.622Z,21.30
2018-07-26T03:14:07.813Z,21.13
2018-07-26T03:14:39.038Z,21.29
2018-07-26T03:15:10.225Z,21.29
2018-07-26T03:15:41.340Z,21.30
2018-07-26T03:16:12.513Z,21.29
2018-07-26T03:16:43.943Z,21.28
2018-07-26T03:17:15.116Z,21.26
2018-07-26T03:17:46.264Z,21.28
2018-07-26T03:18:17.437Z,21.28
2018-07-26T03:18:48.630Z,21.28
2018-07-26T03:19:19.749Z,21.32
2018-07-26T03:19:50.856Z,21.33
2018-07-26T03:20:21.981Z,21.35
2018-07-26T03:20:53.165Z,21.39
2018-07-26T03:21:24.301Z,21.40
2018-07-26T03:21:55.524Z,21.04
2018-07-26T03:22:26.643Z,21.35
2018-07-26T03:22:58.703Z,21.37
2018-07-26T03:23:29.937Z,21.37
2018-07-26T03:24:01.987Z,21.41
2018-07-26T03:24:33.112Z,21.42
2018-07-26T03:25:04.287Z,21.44
2018-07-26T03:25:35.467Z,21.48
2018-07-26T03:26:06.673Z,21.48
2018-07-26T03:26:37.905Z,21.51
2018-07-26T03:27:09.136Z,21.54
2018-07-26T03:27:40.422Z,21.52
2018-07-26T03:28:11.607Z,21.54
2018-07-26T03:28:42.781Z,21.39
2018-07-26T03:29:13.899Z,21.54
2018-07-26T03:29:45.016Z,21.56
2018-07-26T03:30:16.155Z,21.53
2018-07-26T03:30:47.325Z,21.56
2018-07-26T03:31:18.523Z,21.57
2018-07-26T03:31:49.805Z,21.60
2018-07-26T03:32:20.950Z,21.62
2018-07-26T03:32:52.063Z,21.62
2018-07-26T03:33:23.244Z,21.56
2018-07-26T03:33:54.563Z,21.58
2018-07-26T03:34:25.821Z,21.60
2018-07-26T03:34:57.060Z,21.62
2018-07-26T03:35:28.197Z,21.63
2018-07-26T03:35:59.372Z,21.64
2018-07-26T03:36:30.596Z,21.64
2018-07-26T03:37:01.719Z,21.65
2018-07-26T03:37:32.901Z,21.64
2018-07-26T03:38:04.078Z,21.69
2018-07-26T03:38:35.192Z,21.73
2018-07-26T03:39:06.376Z,21.71
2018-07-26T03:39:37.503Z,21.71
2018-07-26T03:40:08.685Z,21.75
2018-07-26T03:40:39.808Z,21.75
2018-07-26T03:41:10.982Z,21.78
2018-07-26T03:41:42.097Z,21.80
2018-07-26T03:42:13.267Z,21.80
2018-07-26T03:42:44.456Z,21.78
2018-07-26T03:43:15.690Z,21.80
2018-07-26T03:43:46.869Z,21.80
2018-07-26T03:44:17.997Z,21.83
2018-07-26T03:44:49.115Z,21.83
2018-07-26T03:45:20.232Z,21.86
2018-07-26T03:45:51.367Z,21.88
2018-07-26T03:46:22.542Z,21.90
2018-07-26T03:46:53.718Z,21.91
2018-07-26T03:47:24.872Z,21.91
2018-07-26T03:47:56.106Z,21.92
2018-07-26T03:48:27.291Z,21.92
2018-07-26T03:48:58.407Z,21.91
2018-07-26T03:49:29.649Z,21.94
2018-07-26T03:50:00.822Z,21.97
2018-07-26T03:50:32.032Z,22.00
2018-07-26T03:51:03.256Z,22.01
2018-07-26T03:51:34.452Z,22.00
2018-07-26T03:52:05.627Z,21.97
2018-07-26T03:52:36.887Z,21.96
2018-07-26T03:53:08.107Z,21.95
2018-07-26T03:53:39.340Z,21.93
2018-07-26T03:54:10.461Z,21.90
2018-07-26T03:54:41.625Z,21.91
2018-07-26T03:55:12.749Z,21.94
2018-07-26T03:55:43.942Z,21.94
2018-07-26T03:56:15.152Z,21.96
2018-07-26T03:56:46.334Z,21.97
2018-07-26T03:57:17.673Z,22.01
2018-07-26T03:57:48.891Z,22.04
2018-07-26T03:58:20.085Z,22.05
2018-07-26T03:58:51.272Z,22.06
2018-07-26T03:59:22.557Z,22.07
2018-07-26T03:59:53.754Z,22.13
2018-07-26T04:00:24.872Z,22.19
2018-07-26T04:00:56.041Z,22.22
2018-07-26T04:01:27.243Z,22.23
2018-07-26T04:01:58.476Z,22.27
2018-07-26T04:02:29.646Z,22.31
2018-07-26T04:03:00.904Z,22.33
2018-07-26T04:03:32.025Z,22.38
2018-07-26T04:04:03.202Z,22.41
2018-07-26T04:04:34.372Z,22.46
2018-07-26T04:05:05.549Z,22.50
2018-07-26T04:05:36.768Z,22.53
2018-07-26T04:06:07.940Z,22.56
2018-07-26T04:06:39.229Z,22.58
2018-07-26T04:07:10.352Z,22.61
2018-07-26T04:07:41.477Z,22.61
2018-07-26T04:08:12.684Z,22.64
2018-07-26T04:08:43.860Z,22.65
2018-07-26T04:09:15.089Z,22.65
2018-07-26T04:09:46.256Z,22.66
2018-07-26T04:10:17.434Z,22.67
2018-07-26T04:10:48.562Z,22.69
2018-07-26T04:11:19.794Z,22.72
2018-07-26T04:11:51.048Z,22.74
2018-07-26T04:12:22.617Z,22.60
2018-07-26T04:12:53.776Z,22.79
2018-07-26T04:13:24.936Z,22.81
2018-07-26T04:13:56.121Z,22.80
2018-07-26T04:14:27.343Z,22.80
2018-07-26T04:14:58.459Z,22.81
2018-07-26T04:15:29.677Z,22.80
2018-07-26T04:16:00.860Z,22.78
2018-07-26T04:16:31.993Z,22.81
2018-07-26T04:17:03.162Z,22.82
2018-07-26T04:17:34.352Z,22.87
2018-07-26T04:18:05.580Z,22.92
2018-07-26T04:18:36.792Z,22.97
2018-07-26T04:19:07.965Z,23.01
2018-07-26T04:19:39.229Z,23.04
2018-07-26T04:20:10.455Z,23.01
2018-07-26T04:20:41.619Z,22.94
2018-07-26T04:21:12.829Z,22.91
2018-07-26T04:21:44.001Z,22.92
2018-07-26T04:22:15.183Z,22.98
2018-07-26T04:22:46.292Z,23.01
2018-07-26T04:23:17.549Z,23.06
2018-07-26T04:23:48.718Z,23.09
2018-07-26T04:24:19.875Z,23.13
2018-07-26T04:24:51.007Z,23.18
2018-07-26T04:25:22.229Z,23.22
2018-07-26T04:25:53.354Z,23.23
2018-07-26T04:26:24.463Z,23.20
2018-07-26T04:26:55.612Z,23.20
2018-07-26T04:27:26.813Z,23.24
2018-07-26T04:27:57.981Z,23.27
2018-07-26T04:28:29.089Z,23.28
2018-07-26T04:29:00.204Z,23.28
2018-07-26T04:29:31.307Z,23.37
2018-07-26T04:30:02.489Z,23.39
2018-07-26T04:30:33.611Z,23.41
2018-07-26T04:31:04.835Z,23.47
2018-07-26T04:31:36.021Z,23.53
2018-07-26T04:32:07.221Z,23.54
2018-07-26T04:32:38.386Z,23.57
2018-07-26T04:33:09.577Z,23.64
2018-07-26T04:33:40.690Z,23.69
2018-07-26T04:34:11.843Z,23.69
2018-07-26T04:34:43.034Z,23.68
2018-07-26T04:35:14.281Z,23.67
2018-07-26T04:35:45.392Z,23.69
2018-07-26T04:36:16.544Z,23.74
2018-07-26T04:36:47.738Z,23.77
2018-07-26T04:37:18.931Z,23.79
2018-07-26T04:37:50.197Z,23.78
2018-07-26T04:38:21.384Z,23.73
2018-07-26T04:38:52.544Z,23.72
2018-07-26T04:39:23.757Z,23.78
2018-07-26T04:39:54.880Z,23.77
2018-07-26T04:40:26.067Z,23.74
2018-07-26T04:40:57.233Z,23.72
2018-07-26T04:41:28.359Z,23.70
2018-07-26T04:41:59.475Z,23.71
2018-07-26T04:42:30.629Z,23.73
2018-07-26T04:43:01.880Z,23.76
2018-07-26T04:43:33.038Z,23.80
2018-07-26T04:44:04.203Z,23.83
2018-07-26T04:44:35.389Z,23.87
2018-07-26T04:45:06.618Z,23.92
2018-07-26T04:45:37.825Z,23.95
2018-07-26T04:46:08.938Z,23.97
2018-07-26T04:46:40.065Z,23.95
2018-07-26T04:47:11.176Z,23.92
2018-07-26T04:47:42.288Z,23.87
2018-07-26T04:48:13.505Z,23.86
2018-07-26T04:48:44.633Z,23.89
2018-07-26T04:49:15.802Z,23.91
2018-07-26T04:49:46.916Z,23.91
2018-07-26T04:50:18.028Z,23.95
2018-07-26T04:50:49.194Z,23.97
2018-07-26T04:51:20.380Z,24.04
2018-07-26T04:51:51.558Z,24.02
2018-07-26T04:52:22.732Z,23.98
2018-07-26T04:52:53.888Z,23.96
2018-07-26T04:53:25.098Z,23.96
2018-07-26T04:53:56.275Z,23.91
2018-07-26T04:54:27.464Z,23.85
2018-07-26T04:54:58.679Z,23.83
2018-07-26T04:55:29.804Z,23.83
2018-07-26T04:56:00.991Z,23.90
2018-07-26T04:56:32.160Z,23.94
2018-07-26T04:57:03.284Z,23.91
2018-07-26T04:57:34.403Z,23.96
2018-07-26T04:58:05.555Z,23.97
2018-07-26T04:58:36.724Z,23.95
2018-07-26T04:59:07.843Z,23.97
2018-07-26T04:59:38.959Z,24.00
2018-07-26T05:00:10.198Z,24.00
2018-07-26T05:00:41.382Z,24.06
2018-07-26T05:01:12.576Z,24.03
2018-07-26T05:01:43.688Z,24.04
2018-07-26T05:02:14.813Z,24.06
2018-07-26T05:02:45.970Z,24.12
2018-07-26T05:03:17.200Z,24.16
2018-07-26T05:03:48.404Z,24.22
2018-07-26T05:04:19.510Z,24.24
2018-07-26T05:04:50.619Z,24.19
2018-07-26T05:05:21.797Z,24.21
2018-07-26T05:05:52.936Z,24.25
2018-07-26T05:06:24.069Z,24.21
2018-07-26T05:06:55.187Z,24.13
2018-07-26T05:07:26.416Z,24.06
2018-07-26T05:07:57.632Z,24.02
2018-07-26T05:08:28.865Z,24.06
2018-07-26T05:09:00.062Z,23.99
2018-07-26T05:09:31.244Z,24.02
2018-07-26T05:10:02.417Z,24.01
2018-07-26T05:10:33.589Z,24.06
2018-07-26T05:11:04.777Z,24.09
2018-07-26T05:11:36.021Z,24.13
2018-07-26T05:12:07.211Z,24.18
2018-07-26T05:12:38.397Z,24.27
2018-07-26T05:13:09.601Z,24.32
2018-07-26T05:13:40.771Z,24.41
2018-07-26T05:14:11.898Z,24.44
2018-07-26T05:14:43.077Z,24.44
2018-07-26T05:15:14.187Z,24.52
2018-07-26T05:15:45.348Z,24.55
2018-07-26T05:16:16.467Z,24.50
2018-07-26T05:16:47.664Z,24.59
2018-07-26T05:17:19.300Z,24.67
2018-07-26T05:17:50.517Z,24.68
2018-07-26T05:18:21.649Z,24.68
2018-07-26T05:18:52.902Z,24.72
2018-07-26T05:19:24.157Z,24.75
2018-07-26T05:19:55.377Z,24.77
2018-07-26T05:20:26.510Z,24.79
2018-07-26T05:20:57.700Z,24.77
2018-07-26T05:21:28.906Z,24.72
2018-07-26T05:22:00.080Z,24.66
2018-07-26T05:22:31.259Z,24.58
2018-07-26T05:23:02.498Z,24.62
2018-07-26T05:23:33.632Z,24.66
2018-07-26T05:24:04.865Z,24.70
2018-07-26T05:24:36.081Z,24.65
2018-07-26T05:25:07.209Z,24.65
2018-07-26T05:25:38.335Z,24.67
2018-07-26T05:26:09.456Z,24.70
2018-07-26T05:26:40.583Z,24.74
2018-07-26T05:27:11.806Z,24.74
2018-07-26T05:27:43.247Z,24.78
2018-07-26T05:28:14.357Z,24.82
2018-07-26T05:28:45.481Z,24.89
2018-07-26T05:29:16.707Z,24.96
2018-07-26T05:29:47.960Z,25.07
2018-07-26T05:30:19.140Z,25.12
2018-07-26T05:30:50.419Z,25.20
2018-07-26T05:31:21.608Z,25.21
2018-07-26T05:31:52.793Z,25.21
2018-07-26T05:32:23.985Z,25.17
2018-07-26T05:32:55.110Z,25.15
2018-07-26T05:33:26.302Z,25.18
2018-07-26T05:33:57.422Z,25.14
2018-07-26T05:34:28.609Z,25.11
2018-07-26T05:34:59.877Z,25.09
2018-07-26T05:35:31.124Z,25.16
2018-07-26T05:36:02.325Z,25.23
2018-07-26T05:36:33.441Z,25.34
2018-07-26T05:37:04.559Z,25.43
2018-07-26T05:37:35.751Z,25.43
2018-07-26T05:38:06.882Z,25.44
2018-07-26T05:38:38.045Z,25.55
2018-07-26T05:39:09.233Z,25.59
2018-07-26T05:39:40.400Z,25.57
2018-07-26T05:40:11.572Z,25.39
2018-07-26T05:40:42.694Z,25.30
2018-07-26T05:41:13.816Z,25.16
2018-07-26T05:41:45.053Z,25.10
2018-07-26T05:42:16.271Z,25.03
2018-07-26T05:42:47.486Z,25.05
2018-07-26T05:43:18.975Z,25.15
2018-07-26T05:43:50.096Z,25.22
2018-07-26T05:44:21.216Z,25.19
2018-07-26T05:44:52.341Z,25.16
2018-07-26T05:45:23.516Z,25.21
2018-07-26T05:45:55.768Z,25.20
2018-07-26T05:46:27.902Z,25.17
2018-07-26T05:46:59.117Z,25.26
2018-07-26T05:47:30.292Z,25.23
2018-07-26T05:48:01.473Z,25.32
2018-07-26T05:48:32.656Z,25.38
2018-07-26T05:49:03.850Z,25.34
2018-07-26T05:49:35.029Z,25.35
2018-07-26T05:50:06.277Z,25.31
2018-07-26T05:50:37.514Z,25.26
2018-07-26T05:51:08.648Z,25.25
2018-07-26T05:51:39.847Z,25.30
2018-07-26T05:52:11.076Z,25.28
2018-07-26T05:52:42.231Z,25.25
2018-07-26T05:53:13.408Z,25.15
2018-07-26T05:53:44.505Z,25.12
2018-07-26T05:54:15.680Z,25.15
2018-07-26T05:54:46.946Z,25.11
2018-07-26T05:55:18.147Z,25.06
2018-07-26T05:55:49.264Z,25.01
2018-07-26T05:56:20.380Z,25.01
2018-07-26T05:56:51.545Z,25.10
2018-07-26T05:57:22.675Z,25.21
2018-07-26T05:57:53.832Z,25.30
2018-07-26T05:58:25.004Z,25.41
2018-07-26T05:58:56.123Z,25.32
2018-07-26T05:59:27.361Z,25.58
2018-07-26T05:59:58.699Z,25.65
2018-07-26T06:00:29.804Z,25.70
2018-07-26T06:01:00.930Z,25.77
2018-07-26T06:01:32.056Z,25.85
2018-07-26T06:02:03.245Z,25.95
2018-07-26T06:02:34.463Z,25.93
2018-07-26T06:03:05.617Z,25.89
2018-07-26T06:03:36.799Z,25.87
2018-07-26T06:04:08.022Z,25.91
2018-07-26T06:04:39.225Z,25.77
2018-07-26T06:05:10.406Z,25.75
2018-07-26T06:05:41.584Z,25.75
2018-07-26T06:06:12.715Z,25.75
2018-07-26T06:06:43.844Z,25.84
2018-07-26T06:07:14.995Z,25.78
2018-07-26T06:07:46.127Z,25.72
2018-07-26T06:08:17.320Z,25.65
2018-07-26T06:08:48.481Z,25.75
2018-07-26T06:09:19.673Z,25.83
2018-07-26T06:09:50.855Z,25.85
2018-07-26T06:10:22.054Z,25.67
2018-07-26T06:10:53.219Z,25.58
2018-07-26T06:11:24.409Z,25.54
2018-07-26T06:11:55.520Z,25.50
2018-07-26T06:12:26.736Z,25.47
2018-07-26T06:12:57.882Z,25.52
2018-07-26T06:13:29.632Z,25.64
2018-07-26T06:14:00.821Z,25.71
2018-07-26T06:14:31.953Z,25.68
2018-07-26T06:15:03.117Z,25.67
2018-07-26T06:15:34.244Z,25.65
2018-07-26T06:16:05.429Z,25.56
2018-07-26T06:16:36.583Z,25.53
2018-07-26T06:17:07.717Z,25.63
2018-07-26T06:17:38.864Z,25.68
2018-07-26T06:18:10.006Z,25.81
2018-07-26T06:18:41.206Z,25.90
2018-07-26T06:19:12.453Z,25.93
2018-07-26T06:19:43.621Z,25.83
2018-07-26T06:20:14.803Z,25.70
2018-07-26T06:20:46.067Z,25.63
2018-07-26T06:21:17.260Z,25.47
2018-07-26T06:21:48.523Z,25.46
2018-07-26T06:22:19.904Z,25.38
2018-07-26T06:22:51.308Z,25.43
2018-07-26T06:23:22.497Z,25.45
2018-07-26T06:23:54.586Z,25.55
2018-07-26T06:24:25.825Z,25.66
2018-07-26T06:24:57.030Z,25.74
2018-07-26T06:25:28.244Z,25.83
2018-07-26T06:25:59.596Z,25.94
2018-07-26T06:26:30.744Z,25.97
2018-07-26T06:27:01.989Z,25.97
2018-07-26T06:27:33.163Z,25.94
2018-07-26T06:28:04.572Z,25.95
2018-07-26T06:28:35.532Z,26.00
2018-07-26T06:29:06.718Z,26.02
2018-07-26T06:29:37.896Z,26.09
2018-07-26T06:30:09.076Z,26.17
2018-07-26T06:30:40.430Z,26.20
2018-07-26T06:31:11.551Z,26.22
2018-07-26T06:31:42.675Z,26.23
2018-07-26T06:32:13.881Z,26.18
2018-07-26T06:32:45.057Z,26.08
2018-07-26T06:33:16.290Z,26.02
2018-07-26T06:33:47.506Z,26.02
2018-07-26T06:34:18.581Z,26.14
2018-07-26T06:34:49.759Z,26.15
2018-07-26T06:35:20.936Z,26.13
2018-07-26T06:35:52.099Z,26.14
2018-07-26T06:36:23.277Z,26.18
2018-07-26T06:36:54.458Z,26.19
2018-07-26T06:37:25.656Z,26.27
2018-07-26T06:37:56.843Z,26.30
2018-07-26T06:38:27.959Z,26.34
2018-07-26T06:38:59.151Z,26.32
2018-07-26T06:39:30.386Z,26.10
2018-07-26T06:40:01.552Z,26.23
2018-07-26T06:40:32.736Z,26.16
2018-07-26T06:41:03.933Z,26.12
2018-07-26T06:41:35.253Z,26.13